sensor_id;sensor_type;location;lat;lon;timestamp;pressure;altitude;pressure_sealevel;temperature;humidity
22862;BME280;11598;50.652;6.172;2023-11-21T00:08:14;95889.72;;;5.96;100.00
22862;BME280;11598;50.652;6.172;2023-11-21T00:18:14;95890.06;;;5.89;100.00
22862;BME280;11598;50.652;6.172;2023-11-21T00:38:17;95911.09;;;5.83;100.00
22862;BME280;11598;50.652;6.172;2023-11-21T00:48:20;95919.41;;;5.74;100.00
22862;BME280;11598;50.652;6.172;2023-11-21T00:58:20;95929.78;;;5.60;100.00
22862;BME280;11598;50.652;6.172;2023-11-21T01:08:20;95941.97;;;5.70;100.00
22862;BME280;11598;50.652;6.172;2023-11-21T01:18:21;95945.91;;;5.76;100.00
22862;BME280;11598;50.652;6.172;2023-11-21T01:28:22;95955.91;;;5.81;100.00
22862;BME280;11598;50.652;6.172;2023-11-21T01:38:23;95963.25;;;5.74;100.00
22862;BME280;11598;50.652;6.172;2023-11-21T01:48:24;95967.28;;;5.64;100.00
22862;BME280;11598;50.652;6.172;2023-11-21T01:58:24;95975.44;;;5.58;100.00
22862;BME280;11598;50.652;6.172;2023-11-21T02:08:24;95980.56;;;5.58;100.00
22862;BME280;11598;50.652;6.172;2023-11-21T02:18:25;95981.31;;;5.60;100.00
22862;BME280;11598;50.652;6.172;2023-11-21T02:28:26;95992.81;;;5.54;100.00
22862;BME280;11598;50.652;6.172;2023-11-21T02:38:26;95995.38;;;5.54;100.00
22862;BME280;11598;50.652;6.172;2023-11-21T02:48:26;96006.50;;;5.55;100.00
22862;BME280;11598;50.652;6.172;2023-11-21T02:58:27;96009.94;;;5.55;100.00
22862;BME280;11598;50.652;6.172;2023-11-21T03:08:27;96006.50;;;5.55;100.00
22862;BME280;11598;50.652;6.172;2023-11-21T03:18:27;96020.69;;;5.62;100.00
22862;BME280;11598;50.652;6.172;2023-11-21T03:28:29;96029.06;;;5.65;100.00
22862;BME280;11598;50.652;6.172;2023-11-21T03:38:33;96041.00;;;5.66;100.00
22862;BME280;11598;50.652;6.172;2023-11-21T03:48:33;96059.06;;;5.66;100.00
22862;BME280;11598;50.652;6.172;2023-11-21T03:58:33;96058.03;;;5.69;100.00
22862;BME280;11598;50.652;6.172;2023-11-21T04:08:34;96066.03;;;5.64;100.00
22862;BME280;11598;50.652;6.172;2023-11-21T04:18:38;96069.84;;;5.59;100.00
22862;BME280;11598;50.652;6.172;2023-11-21T04:28:38;96080.41;;;5.54;100.00
22862;BME280;11598;50.652;6.172;2023-11-21T04:38:39;96076.09;;;5.55;100.00
22862;BME280;11598;50.652;6.172;2023-11-21T04:48:39;96079.41;;;5.57;100.00
22862;BME280;11598;50.652;6.172;2023-11-21T04:58:39;96091.66;;;5.53;100.00
22862;BME280;11598;50.652;6.172;2023-11-21T05:08:40;96097.72;;;5.52;100.00
22862;BME280;11598;50.652;6.172;2023-11-21T05:18:40;96102.03;;;5.51;100.00
22862;BME280;11598;50.652;6.172;2023-11-21T05:28:41;96106.94;;;5.56;100.00
22862;BME280;11598;50.652;6.172;2023-11-21T05:38:41;96112.16;;;5.55;100.00
22862;BME280;11598;50.652;6.172;2023-11-21T05:48:42;96153.38;;;5.55;100.00
22862;BME280;11598;50.652;6.172;2023-11-21T05:58:42;96157.53;;;5.57;100.00
22862;BME280;11598;50.652;6.172;2023-11-21T06:08:42;96171.16;;;5.59;100.00
22862;BME280;11598;50.652;6.172;2023-11-21T06:18:43;96179.63;;;5.61;100.00
22862;BME280;11598;50.652;6.172;2023-11-21T06:28:44;96190.13;;;5.58;100.00
22862;BME280;11598;50.652;6.172;2023-11-21T06:38:44;96203.28;;;5.54;100.00
22862;BME280;11598;50.652;6.172;2023-11-21T06:48:46;96205.03;;;5.53;100.00
22862;BME280;11598;50.652;6.172;2023-11-21T06:58:46;96218.75;;;5.54;100.00
22862;BME280;11598;50.652;6.172;2023-11-21T07:08:48;96229.06;;;5.54;100.00
22862;BME280;11598;50.652;6.172;2023-11-21T07:18:48;96244.31;;;5.57;100.00
22862;BME280;11598;50.652;6.172;2023-11-21T07:28:49;96256.19;;;5.59;100.00
22862;BME280;11598;50.652;6.172;2023-11-21T07:38:50;96267.91;;;5.65;100.00
22862;BME280;11598;50.652;6.172;2023-11-21T07:48:50;96284.03;;;5.68;100.00
22862;BME280;11598;50.652;6.172;2023-11-21T07:58:52;96298.13;;;5.77;100.00
22862;BME280;11598;50.652;6.172;2023-11-21T08:08:53;96309.69;;;5.86;100.00
22862;BME280;11598;50.652;6.172;2023-11-21T08:18:53;96327.34;;;5.92;100.00
22862;BME280;11598;50.652;6.172;2023-11-21T08:28:54;96342.69;;;5.95;100.00
22862;BME280;11598;50.652;6.172;2023-11-21T08:38:56;96356.78;;;6.04;100.00
22862;BME280;11598;50.652;6.172;2023-11-21T08:48:57;96354.88;;;6.07;100.00
22862;BME280;11598;50.652;6.172;2023-11-21T08:58:57;96379.28;;;6.16;100.00
22862;BME280;11598;50.652;6.172;2023-11-21T09:08:57;96384.75;;;6.26;100.00
22862;BME280;11598;50.652;6.172;2023-11-21T09:18:58;96392.78;;;6.35;100.00
22862;BME280;11598;50.652;6.172;2023-11-21T09:28:59;96406.06;;;6.44;100.00
22862;BME280;11598;50.652;6.172;2023-11-21T09:38:59;96416.66;;;6.53;100.00
22862;BME280;11598;50.652;6.172;2023-11-21T09:49:03;96424.44;;;6.68;100.00
22862;BME280;11598;50.652;6.172;2023-11-21T09:59:06;96415.03;;;6.81;100.00
22862;BME280;11598;50.652;6.172;2023-11-21T10:09:10;96422.22;;;7.05;100.00
22862;BME280;11598;50.652;6.172;2023-11-21T10:19:12;96437.34;;;7.25;100.00
22862;BME280;11598;50.652;6.172;2023-11-21T10:29:15;96443.06;;;7.30;100.00
22862;BME280;11598;50.652;6.172;2023-11-21T10:39:18;96456.53;;;7.35;100.00
22862;BME280;11598;50.652;6.172;2023-11-21T10:49:20;96454.13;;;7.32;100.00
22862;BME280;11598;50.652;6.172;2023-11-21T10:59:21;96449.72;;;7.34;100.00
22862;BME280;11598;50.652;6.172;2023-11-21T11:09:26;96451.75;;;7.29;100.00
22862;BME280;11598;50.652;6.172;2023-11-21T11:19:27;96455.63;;;7.36;100.00
22862;BME280;11598;50.652;6.172;2023-11-21T11:30:34;96454.34;;;7.29;100.00
22862;BME280;11598;50.652;6.172;2023-11-21T11:40:14;96466.22;;;7.46;100.00
22862;BME280;11598;50.652;6.172;2023-11-21T11:50:17;96469.06;;;7.56;100.00
22862;BME280;11598;50.652;6.172;2023-11-21T12:10:29;96481.19;;;7.41;100.00
22862;BME280;11598;50.652;6.172;2023-11-21T12:20:30;96480.44;;;7.39;100.00
22862;BME280;11598;50.652;6.172;2023-11-21T12:30:34;96488.66;;;7.46;100.00
22862;BME280;11598;50.652;6.172;2023-11-21T12:40:38;96493.34;;;7.53;100.00
22862;BME280;11598;50.652;6.172;2023-11-21T12:50:38;96507.47;;;7.62;100.00
22862;BME280;11598;50.652;6.172;2023-11-21T13:00:44;96525.38;;;7.65;100.00
22862;BME280;11598;50.652;6.172;2023-11-21T13:10:45;96532.00;;;7.55;100.00
22862;BME280;11598;50.652;6.172;2023-11-21T13:20:49;96530.34;;;7.54;100.00
22862;BME280;11598;50.652;6.172;2023-11-21T13:30:50;96536.06;;;7.59;100.00
22862;BME280;11598;50.652;6.172;2023-11-21T13:40:53;96549.81;;;7.59;100.00
22862;BME280;11598;50.652;6.172;2023-11-21T13:50:54;96563.22;;;7.52;100.00
22862;BME280;11598;50.652;6.172;2023-11-21T14:01:11;96578.09;;;7.34;100.00
22862;BME280;11598;50.652;6.172;2023-11-21T14:11:29;96587.31;;;7.24;100.00
22862;BME280;11598;50.652;6.172;2023-11-21T14:21:30;96590.28;;;7.17;100.00
22862;BME280;11598;50.652;6.172;2023-11-21T14:31:30;96587.28;;;7.09;100.00
22862;BME280;11598;50.652;6.172;2023-11-21T14:41:31;96595.50;;;7.02;100.00
22862;BME280;11598;50.652;6.172;2023-11-21T14:51:32;96603.75;;;6.92;100.00
22862;BME280;11598;50.652;6.172;2023-11-21T15:01:32;96623.56;;;6.77;100.00
22862;BME280;11598;50.652;6.172;2023-11-21T15:11:53;96638.44;;;6.72;100.00
22862;BME280;11598;50.652;6.172;2023-11-21T15:21:58;96654.47;;;6.63;100.00
22862;BME280;11598;50.652;6.172;2023-11-21T15:31:59;96667.53;;;6.60;100.00
22862;BME280;11598;50.652;6.172;2023-11-21T15:42:00;96672.88;;;6.57;100.00
22862;BME280;11598;50.652;6.172;2023-11-21T15:52:01;96684.72;;;6.45;100.00
22862;BME280;11598;50.652;6.172;2023-11-21T16:02:03;96702.19;;;6.40;100.00
22862;BME280;11598;50.652;6.172;2023-11-21T16:12:05;96700.63;;;6.38;100.00
22862;BME280;11598;50.652;6.172;2023-11-21T16:22:06;96725.66;;;6.35;100.00
22862;BME280;11598;50.652;6.172;2023-11-21T16:32:06;96732.72;;;6.32;100.00
22862;BME280;11598;50.652;6.172;2023-11-21T16:42:07;96746.06;;;6.40;100.00
22862;BME280;11598;50.652;6.172;2023-11-21T16:52:07;96763.53;;;6.35;100.00
22862;BME280;11598;50.652;6.172;2023-11-21T17:02:08;96776.53;;;6.33;100.00
22862;BME280;11598;50.652;6.172;2023-11-21T17:12:11;96779.34;;;6.29;100.00
22862;BME280;11598;50.652;6.172;2023-11-21T17:22:11;96797.41;;;6.29;100.00
22862;BME280;11598;50.652;6.172;2023-11-21T17:32:11;96817.47;;;6.40;100.00
22862;BME280;11598;50.652;6.172;2023-11-21T17:42:12;96839.44;;;6.31;100.00
22862;BME280;11598;50.652;6.172;2023-11-21T17:52:13;96848.50;;;6.05;100.00
22862;BME280;11598;50.652;6.172;2023-11-21T18:02:14;96867.84;;;5.96;100.00
22862;BME280;11598;50.652;6.172;2023-11-21T18:12:14;96871.22;;;5.79;100.00
22862;BME280;11598;50.652;6.172;2023-11-21T18:22:14;96886.31;;;5.69;100.00
22862;BME280;11598;50.652;6.172;2023-11-21T18:32:15;96911.59;;;5.61;100.00
22862;BME280;11598;50.652;6.172;2023-11-21T18:42:15;96923.81;;;5.58;100.00
22862;BME280;11598;50.652;6.172;2023-11-21T18:52:16;96936.81;;;5.55;100.00
22862;BME280;11598;50.652;6.172;2023-11-21T19:02:16;96952.78;;;5.44;100.00
22862;BME280;11598;50.652;6.172;2023-11-21T19:12:18;96969.84;;;5.27;100.00
22862;BME280;11598;50.652;6.172;2023-11-21T19:22:18;96979.78;;;5.16;100.00
22862;BME280;11598;50.652;6.172;2023-11-21T19:32:19;96994.63;;;5.11;100.00
22862;BME280;11598;50.652;6.172;2023-11-21T19:42:19;96991.03;;;4.95;100.00
22862;BME280;11598;50.652;6.172;2023-11-21T19:52:20;97001.88;;;4.82;100.00
22862;BME280;11598;50.652;6.172;2023-11-21T20:02:21;97043.56;;;4.70;100.00
22862;BME280;11598;50.652;6.172;2023-11-21T20:12:22;97059.19;;;4.45;100.00
22862;BME280;11598;50.652;6.172;2023-11-21T20:22:22;97069.53;;;4.21;100.00
22862;BME280;11598;50.652;6.172;2023-11-21T20:32:22;97092.06;;;3.93;100.00
22862;BME280;11598;50.652;6.172;2023-11-21T20:42:24;97093.09;;;3.65;100.00
22862;BME280;11598;50.652;6.172;2023-11-21T20:52:25;97110.78;;;3.49;100.00
22862;BME280;11598;50.652;6.172;2023-11-21T21:02:25;97112.97;;;3.36;100.00
22862;BME280;11598;50.652;6.172;2023-11-21T21:12:26;97126.16;;;3.26;100.00
22862;BME280;11598;50.652;6.172;2023-11-21T21:22:27;97128.06;;;3.21;100.00
22862;BME280;11598;50.652;6.172;2023-11-21T21:32:27;97124.97;;;3.11;100.00
22862;BME280;11598;50.652;6.172;2023-11-21T21:42:27;97135.25;;;3.11;100.00
22862;BME280;11598;50.652;6.172;2023-11-21T21:52:35;97172.13;;;3.08;100.00
22862;BME280;11598;50.652;6.172;2023-11-21T22:02:35;97180.94;;;3.01;100.00
22862;BME280;11598;50.652;6.172;2023-11-21T22:12:36;97193.25;;;2.90;100.00
22862;BME280;11598;50.652;6.172;2023-11-21T22:22:36;97207.97;;;2.85;100.00
22862;BME280;11598;50.652;6.172;2023-11-21T22:32:37;97218.53;;;2.75;100.00
22862;BME280;11598;50.652;6.172;2023-11-21T22:42:37;97222.22;;;2.65;100.00
22862;BME280;11598;50.652;6.172;2023-11-21T22:52:38;97227.75;;;2.53;100.00
22862;BME280;11598;50.652;6.172;2023-11-21T23:02:39;97253.75;;;2.41;100.00
22862;BME280;11598;50.652;6.172;2023-11-21T23:12:39;97273.59;;;2.34;100.00
22862;BME280;11598;50.652;6.172;2023-11-21T23:22:40;97267.88;;;2.26;100.00
22862;BME280;11598;50.652;6.172;2023-11-21T23:32:40;97272.22;;;2.22;100.00
22862;BME280;11598;50.652;6.172;2023-11-21T23:42:41;97262.69;;;2.27;100.00
22862;BME280;11598;50.652;6.172;2023-11-21T23:52:41;97269.50;;;2.28;100.00
